首页
METAR-TAF:

METAR-TAF

机场 :

富山機場

富山, 日本

纬度: 36-39N, 经度: 137-11E, 海拔: 24米

当前天气观测

该预报发布于18分钟前的12:00 UTC
风速2节,风向多变
温度 13°C
湿度 94%
气压 1019 hPa
能见度10公里或以上
散云层高于9000英尺

METAR: RJNT 191200Z VRB02KT 9999 SCT090 13/12 Q1019

时间: 21:18 (12:18 UTC)

预报

该预报发布于1小时和13分钟前的11:05 UTC
预报有效从19日的 12点(UTC)到 20日的 18点(UTC)
风速4节,风向南转西南
能見度: 8000
少量云层高于800英尺
多云层高于1500英尺
小阵雨
短暂存在
从 19日的 12点(UTC)到 19日的 18点(UTC)
能見度: 3000
少量云层高于600英尺
多云层高于800英尺
少量云层高于2000英尺, 积雨云.
雷暴, 雨, 轻雾
短暂存在
从 19日的 18点(UTC)到 20日的 03点(UTC)
能見度: 4000
少量云层高于800英尺
多云层高于1500英尺
少量云层高于2000英尺, 积雨云.
雷暴, 小雨, 轻雾
成为
从 20日的 00点(UTC)到 20日的 03点(UTC)
风速6节,风向东北

TAF: RJNT 191105Z 1912/2018 21004KT 8000 -SHRA FEW008 BKN015 TEMPO 1912/1918 3000 TSRA BR FEW006 BKN008 FEW020CB TEMPO 1918/2003 4000 -TSRA BR FEW008 BKN015 FEW020CB BECMG 2000/2003 05006KT

超过4000个机场的气象观测和天气预报(METAR&TAF报告)。

可查询的气象台以黄色和红色小点在地图上表示。

将鼠标移到小点上方,可查看气象台名称。

然后点击查看天气观测和预报。

如需切换地图:点击带黑十字的绿色按钮放大地图;点击带横线的绿色按钮缩小地图;或者点击绿色箭头查看邻近地区的地图。


METAR-TAF: